Dutch
Home     News     Corporate     Events & Tours     Flight ops     Crew centre      
My transavia virtual    Join us    Last logs    Who is flying    Software    Training    VRTS     
 

view flightdata
view flightplan
view OFP
view flightlog



flightdata:
pilot: David Kloss
flight: TRA392
from: LDDU (Dubrovnik)
to: EHAM (Amsterdam Schiphol)
date: 04-07-2011
departure: 19:09z
arrival: 20:17z
duration: 1:06
aircraft: B738 (PHHSC)
distance: 322 NM
touchdown: -79 ft/m @ 136 KIAS



flightplan:
-(FPL-TRA392-IS
-B738/M-SDEHPRWXY/S
-LDDU1910
-N0446F380 MADOS L187 TEBLI UL187 ZAG UM725 GRZ UL604 BIGGE T281 NORKU
-EHAM0210 EHRD
-REG/PHHSC SEL/LSHP OPR/TRA RMK/TCAS DOF/110704 RVR/200 ORGN/EHAMTRAK)



operational flightplan (OFP):
NO LOADSHEET AVAILABLE

TRANSAVIA.COM VIRTUAL AIRLINE TOUR:
SUMMERTOUR 2011
LEG 7

WEATHER BRIEFING  -  TRA392  LDDU-EHAM  04JUL11  18:53Z

WEATHER DATA PROVIDED BY IVAO
** NOT FOR OPERATIONAL USE **

DUBROVNIK

LDDU 041700Z 0418/0518 VRB02KT CAVOK

SCHIPHOL

EHAM 041643Z 0418/0524 04007KT CAVOK PROB30 0501/0504 6000 MIFG

ROTTERDAM

EHRD 041648Z 0418/0524 01006KT CAVOK

END WX BRIEF

-------------------------------------NOTAM-------------------------------------

ARRIVAL AERODROME NOTAM EHAM AMSTERDAM SCHIPHOL

REF:NIL AS THIS AIRPORT IS ONE OF OUR WINTERTOUR DESTINATIONS MAKE SURE YOU HAVE VALID CHARTS ONBOARD. NO BRIEFINGS OR FURTHER NOTAMS WILL BE SUPLLIED EXCEPT FROM BASE / OUTSTATIONS.
YOUR LEGS WILL BE AUTOMATICALLY REPORTED TO THE TOUR SYSTEM BY SELECTING YOUR FLIGHT FROM THE TOUR / EVENT TAB IN THE DISPATCH MANAGER. FOR QUESTIONS CHECK THE TOUR FORUM AT OUR WEBSITE. SOURCE: SPL/HV/OCC/HQ
END VALID: WINTER SEASON

A1569/10 - REMOTE HOLDING P6 CLOSED DUE TO SNOW STORAGE. AFTER VACATING RWY
18R
TAXI VIA P7, THEN TURN LEFT TO INTERSECTION TWY VE TO JOIN TWY V. 08 DEC 13:49
2010 UNTIL 02 MAR 12:00 2011 ESTIMATED. CREATED: 08 DEC 13:50 2010


COMPANY NOTAM TRA/HV TRANSAVIA.COM

REF:NIL PLEASE CONTACT OPERATIONS IN CASE OF STRUCTURAL FLIGHTPLAN ERRORS ON OPS@TRANSAVIA-VIRTUAL.COM
VALID:UFN

REF:NIL
PLEASE CHECK ACARS EVERY 10 MINUTES WHEN FLYING WITH SOUND OFF. AN NEW ACARS MESSAGE PRODUCE A SOUND SIGNAL UNTILL ITS READ. FLOWCONTROL DON'T RECEIVE MUCH REACTION ON OUTGOING ACARS MESSAGES ACCORDING FLIGHTSTATUS.
SOURCE: SPL/HV/OCC/
END VALID: UFN

REF:NIL
WINTERTOUR 2011 RELEASED. SEE WEBSITE / TOURMANAGER FOR MORE INFORMATION.
SUMMERTOUR 2010 WILL END AT THE 31TH OF DECEMBER.
END VALID: UFN


REF:NIL
PLEASE CONTACT FLOWCONTROL IN CASE OF PROBLEMS WITH ROUTINGS
SOURCE: SPL/HV/OCC/
END VALID: UFN

REF:NIL
IN CASE OF ENGINE-OUT FLY V2 OR V2+20 MAX. UNTIL ABOVE MSA.
LEVEL-OFF AT AN ALTITUDE ROUNDED OFF TO THE FIRST 1000 FT OF THE HIGHEST MSA.
E.G: MSA EHAM; 1.7 AND 2.3 LEVEL-OFF 3000 FT. AFTER LANDING MAKE A REP TO OCC ON 131.975
SOURCE:SPL/HV/OCC
END VALID:UFN

REF:NIL
COST INDEX 11, DIVERT FROM FMS OUTPUT SPEEDS ON CAPTAINS DISCRETION
WHEN NOT CORRESPONDING WITH ATS ROUTES OR NATIONAL REGULATIONS.
E.G.: 280 KIAS STAR EHAM.
SOURCE:SPL/HV/OCC
END VALID:UFN



flightlog:
Pilot : David Kloss
Flight: TRA392
From  : LDDU Dubrovnik
To    : EHAM Schiphol

[FLIGHTLOG] 1.3.4
04-07-2011 19:09:37z, logging started
04-07-2011 19:09:56z, parking brake released
04-07-2011 19:11:04z, flaps set to 38%
04-07-2011 19:11:13z, pos report: 000 KIAS, 00 539 ft, heading 075, winds 282 @ 04 kts
04-07-2011 19:15:05z, take-off at 160 KIAS
04-07-2011 19:15:05z, pos report: 160 KIAS, 00 541 ft, heading 118, winds 290 @ 04 kts
04-07-2011 19:15:06z, flying online @ VATSIM (TRA392)
04-07-2011 19:15:06z, position: LDDU - Dubrovnik
04-07-2011 19:15:12z, retracted gear at 172 KIAS and 169 ft AGL
04-07-2011 19:15:59z, flaps set to 13%
04-07-2011 19:16:19z, flaps set to 0%
04-07-2011 19:26:14z, pos report: 309 KIAS, 27 468 ft, heading 332, winds 297 @ 49 kts
04-07-2011 19:41:15z, pos report: 255 KIAS, 37 962 ft, heading 330, winds 277 @ 53 kts
04-07-2011 19:56:16z, pos report: 256 KIAS, 37 962 ft, heading 323, winds 284 @ 38 kts
04-07-2011 20:13:53z, overspeeding
04-07-2011 20:15:32z, recovered from overspeed

©2009-2020, transavia virtual. All rights reserved. This website is only meant for simulation purposes.
This website is not owned by transavia, nor is transavia responsible for the content of this website.